sensor_id;sensor_type;location;lat;lon;timestamp;P1;durP1;ratioP1;P2;durP2;ratioP2
9942;SDS011;5010;45.080;7.634;2024-03-02T00:01:16;18.88;;;14.40;;
9942;SDS011;5010;45.080;7.634;2024-03-02T00:03:43;11.40;;;8.90;;
9942;SDS011;5010;45.080;7.634;2024-03-02T00:06:10;10.52;;;6.68;;
9942;SDS011;5010;45.080;7.634;2024-03-02T00:08:38;6.97;;;3.58;;
9942;SDS011;5010;45.080;7.634;2024-03-02T00:11:06;6.57;;;2.60;;
9942;SDS011;5010;45.080;7.634;2024-03-02T00:13:36;4.68;;;2.25;;
9942;SDS011;5010;45.080;7.634;2024-03-02T00:16:05;5.15;;;2.38;;
9942;SDS011;5010;45.080;7.634;2024-03-02T00:18:34;3.90;;;2.00;;
9942;SDS011;5010;45.080;7.634;2024-03-02T00:21:03;4.50;;;2.28;;
9942;SDS011;5010;45.080;7.634;2024-03-02T00:23:34;4.15;;;2.08;;
9942;SDS011;5010;45.080;7.634;2024-03-02T00:26:04;4.03;;;2.60;;
9942;SDS011;5010;45.080;7.634;2024-03-02T00:28:34;5.18;;;3.03;;
9942;SDS011;5010;45.080;7.634;2024-03-02T00:31:04;4.50;;;2.20;;
9942;SDS011;5010;45.080;7.634;2024-03-02T00:33:34;4.25;;;2.08;;
9942;SDS011;5010;45.080;7.634;2024-03-02T00:36:04;11.77;;;2.20;;
9942;SDS011;5010;45.080;7.634;2024-03-02T00:38:33;4.10;;;1.92;;
9942;SDS011;5010;45.080;7.634;2024-03-02T00:41:09;4.72;;;2.30;;
9942;SDS011;5010;45.080;7.634;2024-03-02T00:43:45;4.00;;;1.60;;
9942;SDS011;5010;45.080;7.634;2024-03-02T00:46:18;5.18;;;2.08;;
9942;SDS011;5010;45.080;7.634;2024-03-02T00:48:52;4.13;;;1.65;;
9942;SDS011;5010;45.080;7.634;2024-03-02T00:51:21;3.83;;;1.58;;
9942;SDS011;5010;45.080;7.634;2024-03-02T00:53:50;3.40;;;1.30;;
9942;SDS011;5010;45.080;7.634;2024-03-02T00:56:20;6.30;;;1.90;;
9942;SDS011;5010;45.080;7.634;2024-03-02T00:58:48;4.30;;;1.90;;
9942;SDS011;5010;45.080;7.634;2024-03-02T01:01:15;6.53;;;1.80;;
9942;SDS011;5010;45.080;7.634;2024-03-02T01:03:43;4.40;;;1.77;;
9942;SDS011;5010;45.080;7.634;2024-03-02T01:06:12;4.15;;;2.15;;
9942;SDS011;5010;45.080;7.634;2024-03-02T01:08:40;3.80;;;1.70;;
9942;SDS011;5010;45.080;7.634;2024-03-02T01:11:07;3.40;;;1.73;;
9942;SDS011;5010;45.080;7.634;2024-03-02T01:13:35;3.58;;;1.60;;
9942;SDS011;5010;45.080;7.634;2024-03-02T01:16:03;44.10;;;24.42;;
9942;SDS011;5010;45.080;7.634;2024-03-02T01:18:31;98.00;;;49.88;;
9942;SDS011;5010;45.080;7.634;2024-03-02T01:20:58;8.23;;;6.10;;
9942;SDS011;5010;45.080;7.634;2024-03-02T01:23:28;4.68;;;2.08;;
9942;SDS011;5010;45.080;7.634;2024-03-02T01:25:55;28.80;;;17.52;;
9942;SDS011;5010;45.080;7.634;2024-03-02T01:28:23;73.97;;;40.10;;
9942;SDS011;5010;45.080;7.634;2024-03-02T01:30:50;57.88;;;38.20;;
9942;SDS011;5010;45.080;7.634;2024-03-02T01:33:19;37.95;;;18.95;;
9942;SDS011;5010;45.080;7.634;2024-03-02T01:35:46;24.88;;;14.07;;
9942;SDS011;5010;45.080;7.634;2024-03-02T01:38:14;24.02;;;15.07;;
9942;SDS011;5010;45.080;7.634;2024-03-02T01:40:43;7.82;;;2.50;;
9942;SDS011;5010;45.080;7.634;2024-03-02T01:43:11;5.43;;;2.10;;
9942;SDS011;5010;45.080;7.634;2024-03-02T01:45:38;4.15;;;1.52;;
9942;SDS011;5010;45.080;7.634;2024-03-02T01:48:06;5.00;;;1.80;;
9942;SDS011;5010;45.080;7.634;2024-03-02T01:50:34;3.83;;;1.52;;
9942;SDS011;5010;45.080;7.634;2024-03-02T01:53:02;4.80;;;2.05;;
9942;SDS011;5010;45.080;7.634;2024-03-02T01:55:30;4.60;;;2.10;;
9942;SDS011;5010;45.080;7.634;2024-03-02T01:58:01;7.40;;;3.38;;
9942;SDS011;5010;45.080;7.634;2024-03-02T02:00:29;4.40;;;1.88;;
9942;SDS011;5010;45.080;7.634;2024-03-02T02:02:57;4.40;;;1.58;;
9942;SDS011;5010;45.080;7.634;2024-03-02T02:05:25;3.63;;;1.52;;
9942;SDS011;5010;45.080;7.634;2024-03-02T02:07:52;4.32;;;1.83;;
9942;SDS011;5010;45.080;7.634;2024-03-02T02:10:20;4.97;;;2.00;;
9942;SDS011;5010;45.080;7.634;2024-03-02T02:12:47;5.57;;;1.58;;
9942;SDS011;5010;45.080;7.634;2024-03-02T02:15:23;3.80;;;1.60;;
9942;SDS011;5010;45.080;7.634;2024-03-02T02:17:51;4.32;;;2.10;;
9942;SDS011;5010;45.080;7.634;2024-03-02T02:20:18;6.35;;;3.00;;
9942;SDS011;5010;45.080;7.634;2024-03-02T02:22:57;4.50;;;2.80;;
9942;SDS011;5010;45.080;7.634;2024-03-02T02:25:25;4.68;;;1.90;;
9942;SDS011;5010;45.080;7.634;2024-03-02T02:27:53;6.90;;;2.67;;
9942;SDS011;5010;45.080;7.634;2024-03-02T02:30:21;3.40;;;1.48;;
9942;SDS011;5010;45.080;7.634;2024-03-02T02:32:49;3.85;;;1.50;;
9942;SDS011;5010;45.080;7.634;2024-03-02T02:35:17;5.07;;;1.50;;
9942;SDS011;5010;45.080;7.634;2024-03-02T02:37:44;4.68;;;1.45;;
9942;SDS011;5010;45.080;7.634;2024-03-02T02:40:15;4.13;;;1.52;;
9942;SDS011;5010;45.080;7.634;2024-03-02T02:42:44;3.85;;;1.45;;
9942;SDS011;5010;45.080;7.634;2024-03-02T02:45:11;3.50;;;1.40;;
9942;SDS011;5010;45.080;7.634;2024-03-02T02:47:40;3.30;;;1.40;;
9942;SDS011;5010;45.080;7.634;2024-03-02T02:50:08;3.80;;;1.23;;
9942;SDS011;5010;45.080;7.634;2024-03-02T02:52:36;4.10;;;1.70;;
9942;SDS011;5010;45.080;7.634;2024-03-02T02:55:06;3.58;;;1.45;;
9942;SDS011;5010;45.080;7.634;2024-03-02T02:57:36;3.78;;;1.50;;
9942;SDS011;5010;45.080;7.634;2024-03-02T03:00:06;3.75;;;1.60;;
9942;SDS011;5010;45.080;7.634;2024-03-02T03:02:39;3.30;;;1.27;;
9942;SDS011;5010;45.080;7.634;2024-03-02T03:05:08;3.83;;;1.50;;
9942;SDS011;5010;45.080;7.634;2024-03-02T03:07:37;5.30;;;1.50;;
9942;SDS011;5010;45.080;7.634;2024-03-02T03:10:06;3.50;;;1.50;;
9942;SDS011;5010;45.080;7.634;2024-03-02T03:12:35;3.30;;;1.30;;
9942;SDS011;5010;45.080;7.634;2024-03-02T03:15:03;3.30;;;1.40;;
9942;SDS011;5010;45.080;7.634;2024-03-02T03:17:32;3.50;;;1.50;;
9942;SDS011;5010;45.080;7.634;2024-03-02T03:20:00;3.60;;;1.40;;
9942;SDS011;5010;45.080;7.634;2024-03-02T03:22:29;3.20;;;1.15;;
9942;SDS011;5010;45.080;7.634;2024-03-02T03:24:56;3.55;;;1.50;;
9942;SDS011;5010;45.080;7.634;2024-03-02T03:27:24;3.45;;;1.38;;
9942;SDS011;5010;45.080;7.634;2024-03-02T03:29:53;5.15;;;1.58;;
9942;SDS011;5010;45.080;7.634;2024-03-02T03:32:21;4.13;;;1.60;;
9942;SDS011;5010;45.080;7.634;2024-03-02T03:34:48;7.53;;;1.80;;
9942;SDS011;5010;45.080;7.634;2024-03-02T03:37:16;3.80;;;1.50;;
9942;SDS011;5010;45.080;7.634;2024-03-02T03:39:43;5.00;;;1.80;;
9942;SDS011;5010;45.080;7.634;2024-03-02T03:42:11;3.50;;;1.50;;
9942;SDS011;5010;45.080;7.634;2024-03-02T03:44:39;3.75;;;1.50;;
9942;SDS011;5010;45.080;7.634;2024-03-02T03:47:08;3.40;;;1.20;;
9942;SDS011;5010;45.080;7.634;2024-03-02T03:49:36;3.75;;;1.40;;
9942;SDS011;5010;45.080;7.634;2024-03-02T03:52:03;4.40;;;1.50;;
9942;SDS011;5010;45.080;7.634;2024-03-02T03:54:31;3.80;;;1.38;;
9942;SDS011;5010;45.080;7.634;2024-03-02T03:56:59;3.70;;;1.40;;
9942;SDS011;5010;45.080;7.634;2024-03-02T03:59:26;3.90;;;1.52;;
9942;SDS011;5010;45.080;7.634;2024-03-02T04:01:54;4.10;;;1.30;;
9942;SDS011;5010;45.080;7.634;2024-03-02T04:04:23;3.60;;;1.20;;
9942;SDS011;5010;45.080;7.634;2024-03-02T04:06:50;3.70;;;1.15;;
9942;SDS011;5010;45.080;7.634;2024-03-02T04:09:17;3.85;;;1.25;;
9942;SDS011;5010;45.080;7.634;2024-03-02T04:11:45;3.70;;;1.30;;
9942;SDS011;5010;45.080;7.634;2024-03-02T04:14:13;3.70;;;1.20;;
9942;SDS011;5010;45.080;7.634;2024-03-02T04:16:40;3.50;;;1.20;;
9942;SDS011;5010;45.080;7.634;2024-03-02T04:19:09;4.03;;;1.40;;
9942;SDS011;5010;45.080;7.634;2024-03-02T04:21:38;4.35;;;1.40;;
9942;SDS011;5010;45.080;7.634;2024-03-02T04:24:05;3.70;;;1.33;;
9942;SDS011;5010;45.080;7.634;2024-03-02T04:26:33;3.60;;;1.30;;
9942;SDS011;5010;45.080;7.634;2024-03-02T04:29:01;4.10;;;1.60;;
9942;SDS011;5010;45.080;7.634;2024-03-02T04:31:28;3.50;;;1.67;;
9942;SDS011;5010;45.080;7.634;2024-03-02T04:33:56;3.60;;;1.20;;
9942;SDS011;5010;45.080;7.634;2024-03-02T04:36:23;4.38;;;1.38;;
9942;SDS011;5010;45.080;7.634;2024-03-02T04:38:52;4.10;;;1.50;;
9942;SDS011;5010;45.080;7.634;2024-03-02T04:41:20;3.80;;;1.27;;
9942;SDS011;5010;45.080;7.634;2024-03-02T04:43:47;3.65;;;1.60;;
9942;SDS011;5010;45.080;7.634;2024-03-02T04:46:14;3.60;;;1.60;;
9942;SDS011;5010;45.080;7.634;2024-03-02T04:48:42;3.50;;;1.60;;
9942;SDS011;5010;45.080;7.634;2024-03-02T04:51:09;5.03;;;2.45;;
9942;SDS011;5010;45.080;7.634;2024-03-02T04:53:37;3.40;;;1.25;;
9942;SDS011;5010;45.080;7.634;2024-03-02T04:56:06;4.53;;;1.63;;
9942;SDS011;5010;45.080;7.634;2024-03-02T04:58:50;3.35;;;1.27;;
9942;SDS011;5010;45.080;7.634;2024-03-02T11:06:31;14.27;;;8.48;;
9942;SDS011;5010;45.080;7.634;2024-03-02T11:09:04;16.50;;;8.38;;
9942;SDS011;5010;45.080;7.634;2024-03-02T11:11:36;13.48;;;9.20;;
9942;SDS011;5010;45.080;7.634;2024-03-02T11:24:31;13.35;;;10.00;;
9942;SDS011;5010;45.080;7.634;2024-03-02T11:27:02;14.25;;;8.75;;
9942;SDS011;5010;45.080;7.634;2024-03-02T11:29:44;11.52;;;7.60;;
9942;SDS011;5010;45.080;7.634;2024-03-02T11:32:16;12.07;;;8.30;;
9942;SDS011;5010;45.080;7.634;2024-03-02T11:34:45;10.27;;;6.85;;
9942;SDS011;5010;45.080;7.634;2024-03-02T11:37:14;10.23;;;7.07;;
9942;SDS011;5010;45.080;7.634;2024-03-02T11:39:44;12.30;;;7.57;;
9942;SDS011;5010;45.080;7.634;2024-03-02T11:42:13;15.30;;;8.23;;
9942;SDS011;5010;45.080;7.634;2024-03-02T12:08:16;13.57;;;7.20;;
9942;SDS011;5010;45.080;7.634;2024-03-02T12:10:48;10.68;;;7.53;;
9942;SDS011;5010;45.080;7.634;2024-03-02T12:13:23;7.75;;;5.00;;
9942;SDS011;5010;45.080;7.634;2024-03-02T12:15:53;7.10;;;5.15;;
9942;SDS011;5010;45.080;7.634;2024-03-02T12:18:22;7.22;;;4.53;;
9942;SDS011;5010;45.080;7.634;2024-03-02T12:20:50;7.32;;;4.72;;
9942;SDS011;5010;45.080;7.634;2024-03-02T12:23:24;7.15;;;4.10;;
9942;SDS011;5010;45.080;7.634;2024-03-02T12:25:51;8.52;;;4.82;;
9942;SDS011;5010;45.080;7.634;2024-03-02T13:41:45;7.78;;;3.97;;
9942;SDS011;5010;45.080;7.634;2024-03-02T13:44:17;8.93;;;4.60;;
9942;SDS011;5010;45.080;7.634;2024-03-02T13:46:45;5.78;;;3.90;;
9942;SDS011;5010;45.080;7.634;2024-03-02T13:49:13;6.47;;;2.80;;
9942;SDS011;5010;45.080;7.634;2024-03-02T13:51:41;9.75;;;6.53;;
9942;SDS011;5010;45.080;7.634;2024-03-02T13:54:10;7.40;;;4.63;;
9942;SDS011;5010;45.080;7.634;2024-03-02T22:36:38;19.73;;;4.95;;
9942;SDS011;5010;45.080;7.634;2024-03-02T22:39:07;12.63;;;5.45;;
9942;SDS011;5010;45.080;7.634;2024-03-02T22:41:34;7.72;;;6.05;;
9942;SDS011;5010;45.080;7.634;2024-03-02T22:44:01;11.13;;;6.38;;
9942;SDS011;5010;45.080;7.634;2024-03-02T22:46:29;13.82;;;5.60;;
9942;SDS011;5010;45.080;7.634;2024-03-02T22:48:56;12.32;;;7.00;;
9942;SDS011;5010;45.080;7.634;2024-03-02T22:51:25;8.10;;;4.85;;
9942;SDS011;5010;45.080;7.634;2024-03-02T22:53:55;10.50;;;5.35;;
9942;SDS011;5010;45.080;7.634;2024-03-02T22:56:22;9.15;;;5.75;;
9942;SDS011;5010;45.080;7.634;2024-03-02T22:58:50;8.77;;;5.57;;
9942;SDS011;5010;45.080;7.634;2024-03-02T23:01:17;13.93;;;7.00;;
9942;SDS011;5010;45.080;7.634;2024-03-02T23:03:46;8.40;;;5.43;;
9942;SDS011;5010;45.080;7.634;2024-03-02T23:06:14;11.40;;;6.75;;
9942;SDS011;5010;45.080;7.634;2024-03-02T23:08:41;13.23;;;5.50;;
9942;SDS011;5010;45.080;7.634;2024-03-02T23:11:10;11.20;;;5.53;;
9942;SDS011;5010;45.080;7.634;2024-03-02T23:13:37;9.95;;;7.28;;
9942;SDS011;5010;45.080;7.634;2024-03-02T23:16:05;10.77;;;5.93;;
9942;SDS011;5010;45.080;7.634;2024-03-02T23:18:32;13.40;;;6.65;;
9942;SDS011;5010;45.080;7.634;2024-03-02T23:20:59;10.82;;;6.00;;
9942;SDS011;5010;45.080;7.634;2024-03-02T23:23:27;15.90;;;9.32;;
9942;SDS011;5010;45.080;7.634;2024-03-02T23:25:54;11.40;;;6.85;;
9942;SDS011;5010;45.080;7.634;2024-03-02T23:28:23;11.05;;;6.75;;
9942;SDS011;5010;45.080;7.634;2024-03-02T23:30:50;10.95;;;6.55;;
9942;SDS011;5010;45.080;7.634;2024-03-02T23:33:18;13.38;;;6.93;;
9942;SDS011;5010;45.080;7.634;2024-03-02T23:35:46;11.90;;;6.72;;
9942;SDS011;5010;45.080;7.634;2024-03-02T23:38:13;11.27;;;6.85;;
9942;SDS011;5010;45.080;7.634;2024-03-02T23:40:39;18.90;;;8.27;;
9942;SDS011;5010;45.080;7.634;2024-03-02T23:43:29;11.75;;;6.25;;
9942;SDS011;5010;45.080;7.634;2024-03-02T23:45:56;16.08;;;7.88;;
9942;SDS011;5010;45.080;7.634;2024-03-02T23:48:24;9.52;;;5.47;;
9942;SDS011;5010;45.080;7.634;2024-03-02T23:50:51;9.45;;;6.07;;
9942;SDS011;5010;45.080;7.634;2024-03-02T23:53:19;8.18;;;4.05;;
9942;SDS011;5010;45.080;7.634;2024-03-02T23:55:46;5.63;;;2.95;;
9942;SDS011;5010;45.080;7.634;2024-03-02T23:58:14;7.20;;;2.70;;
